sensor_id;sensor_type;location;lat;lon;timestamp;P1;durP1;ratioP1;P2;durP2;ratioP2
16075;SDS011;8142;48.242;11.644;2023-06-24T00:02:02;4.90;;;4.30;;
16075;SDS011;8142;48.242;11.644;2023-06-24T00:04:28;6.83;;;4.47;;
16075;SDS011;8142;48.242;11.644;2023-06-24T00:06:54;6.87;;;4.60;;
16075;SDS011;8142;48.242;11.644;2023-06-24T00:09:21;4.77;;;4.20;;
16075;SDS011;8142;48.242;11.644;2023-06-24T00:11:47;5.73;;;4.27;;
16075;SDS011;8142;48.242;11.644;2023-06-24T00:14:13;4.70;;;4.20;;
16075;SDS011;8142;48.242;11.644;2023-06-24T00:16:40;4.93;;;4.10;;
16075;SDS011;8142;48.242;11.644;2023-06-24T00:19:07;5.40;;;4.63;;
16075;SDS011;8142;48.242;11.644;2023-06-24T00:21:33;7.30;;;4.43;;
16075;SDS011;8142;48.242;11.644;2023-06-24T00:24:02;6.23;;;4.53;;
16075;SDS011;8142;48.242;11.644;2023-06-24T00:26:30;4.87;;;4.20;;
16075;SDS011;8142;48.242;11.644;2023-06-24T00:28:57;6.33;;;4.73;;
16075;SDS011;8142;48.242;11.644;2023-06-24T00:31:24;5.37;;;4.43;;
16075;SDS011;8142;48.242;11.644;2023-06-24T00:33:50;4.83;;;4.30;;
16075;SDS011;8142;48.242;11.644;2023-06-24T00:36:17;4.90;;;4.37;;
16075;SDS011;8142;48.242;11.644;2023-06-24T00:38:43;5.80;;;4.60;;
16075;SDS011;8142;48.242;11.644;2023-06-24T00:41:09;5.63;;;4.60;;
16075;SDS011;8142;48.242;11.644;2023-06-24T00:43:35;4.73;;;4.23;;
16075;SDS011;8142;48.242;11.644;2023-06-24T00:46:03;5.03;;;4.10;;
16075;SDS011;8142;48.242;11.644;2023-06-24T00:48:28;5.80;;;4.47;;
16075;SDS011;8142;48.242;11.644;2023-06-24T00:50:57;5.60;;;4.60;;
16075;SDS011;8142;48.242;11.644;2023-06-24T00:53:23;5.30;;;4.30;;
16075;SDS011;8142;48.242;11.644;2023-06-24T00:55:50;5.80;;;4.10;;
16075;SDS011;8142;48.242;11.644;2023-06-24T00:58:18;5.53;;;4.40;;
16075;SDS011;8142;48.242;11.644;2023-06-24T01:00:46;6.33;;;4.13;;
16075;SDS011;8142;48.242;11.644;2023-06-24T01:03:13;5.00;;;4.43;;
16075;SDS011;8142;48.242;11.644;2023-06-24T01:05:42;5.23;;;4.40;;
16075;SDS011;8142;48.242;11.644;2023-06-24T01:08:09;4.83;;;4.33;;
16075;SDS011;8142;48.242;11.644;2023-06-24T01:10:41;5.97;;;4.40;;
16075;SDS011;8142;48.242;11.644;2023-06-24T01:13:07;6.37;;;4.53;;
16075;SDS011;8142;48.242;11.644;2023-06-24T01:15:34;5.00;;;4.13;;
16075;SDS011;8142;48.242;11.644;2023-06-24T01:20:36;4.87;;;4.00;;
16075;SDS011;8142;48.242;11.644;2023-06-24T01:26:37;5.97;;;4.50;;
16075;SDS011;8142;48.242;11.644;2023-06-24T01:32:16;5.27;;;4.00;;
16075;SDS011;8142;48.242;11.644;2023-06-24T01:35:03;5.50;;;4.20;;
16075;SDS011;8142;48.242;11.644;2023-06-24T01:37:42;6.20;;;4.23;;
16075;SDS011;8142;48.242;11.644;2023-06-24T01:42:58;4.20;;;3.80;;
16075;SDS011;8142;48.242;11.644;2023-06-24T01:45:28;4.60;;;4.07;;
16075;SDS011;8142;48.242;11.644;2023-06-24T01:48:16;5.53;;;4.17;;
16075;SDS011;8142;48.242;11.644;2023-06-24T01:51:29;4.40;;;4.00;;
16075;SDS011;8142;48.242;11.644;2023-06-24T01:53:39;4.90;;;3.90;;
16075;SDS011;8142;48.242;11.644;2023-06-24T01:56:08;5.23;;;4.20;;
16075;SDS011;8142;48.242;11.644;2023-06-24T01:58:39;5.60;;;4.73;;
16075;SDS011;8142;48.242;11.644;2023-06-24T02:01:07;5.43;;;3.97;;
16075;SDS011;8142;48.242;11.644;2023-06-24T02:03:33;5.80;;;4.30;;
16075;SDS011;8142;48.242;11.644;2023-06-24T02:06:01;5.70;;;4.33;;
16075;SDS011;8142;48.242;11.644;2023-06-24T02:08:31;5.43;;;3.93;;
16075;SDS011;8142;48.242;11.644;2023-06-24T02:10:58;4.57;;;4.00;;
16075;SDS011;8142;48.242;11.644;2023-06-24T02:13:26;4.60;;;3.97;;
16075;SDS011;8142;48.242;11.644;2023-06-24T02:15:57;4.43;;;3.80;;
16075;SDS011;8142;48.242;11.644;2023-06-24T02:18:24;4.30;;;3.90;;
16075;SDS011;8142;48.242;11.644;2023-06-24T02:20:53;6.10;;;4.20;;
16075;SDS011;8142;48.242;11.644;2023-06-24T02:23:20;4.90;;;4.17;;
16075;SDS011;8142;48.242;11.644;2023-06-24T02:25:47;4.63;;;4.07;;
16075;SDS011;8142;48.242;11.644;2023-06-24T02:28:15;5.10;;;4.10;;
16075;SDS011;8142;48.242;11.644;2023-06-24T02:30:42;5.63;;;4.20;;
16075;SDS011;8142;48.242;11.644;2023-06-24T02:33:09;5.33;;;4.20;;
16075;SDS011;8142;48.242;11.644;2023-06-24T02:35:37;7.53;;;4.10;;
16075;SDS011;8142;48.242;11.644;2023-06-24T02:38:03;5.53;;;4.27;;
16075;SDS011;8142;48.242;11.644;2023-06-24T02:40:29;4.80;;;4.30;;
16075;SDS011;8142;48.242;11.644;2023-06-24T02:42:56;6.10;;;4.30;;
16075;SDS011;8142;48.242;11.644;2023-06-24T02:45:22;4.90;;;4.27;;
16075;SDS011;8142;48.242;11.644;2023-06-24T02:47:48;5.57;;;3.93;;
16075;SDS011;8142;48.242;11.644;2023-06-24T02:50:15;4.50;;;3.90;;
16075;SDS011;8142;48.242;11.644;2023-06-24T02:52:42;5.20;;;4.10;;
16075;SDS011;8142;48.242;11.644;2023-06-24T02:55:08;4.50;;;4.00;;
16075;SDS011;8142;48.242;11.644;2023-06-24T02:57:34;4.83;;;3.80;;
16075;SDS011;8142;48.242;11.644;2023-06-24T03:00:02;4.43;;;3.90;;
16075;SDS011;8142;48.242;11.644;2023-06-24T03:02:31;4.50;;;4.03;;
16075;SDS011;8142;48.242;11.644;2023-06-24T03:04:58;4.63;;;4.13;;
16075;SDS011;8142;48.242;11.644;2023-06-24T03:07:27;6.13;;;4.37;;
16075;SDS011;8142;48.242;11.644;2023-06-24T03:09:55;4.77;;;4.00;;
16075;SDS011;8142;48.242;11.644;2023-06-24T03:12:21;4.87;;;4.17;;
16075;SDS011;8142;48.242;11.644;2023-06-24T03:14:47;4.90;;;3.97;;
16075;SDS011;8142;48.242;11.644;2023-06-24T03:17:13;4.50;;;3.80;;
16075;SDS011;8142;48.242;11.644;2023-06-24T03:19:39;5.93;;;4.50;;
16075;SDS011;8142;48.242;11.644;2023-06-24T03:22:05;5.43;;;4.23;;
16075;SDS011;8142;48.242;11.644;2023-06-24T03:24:31;5.13;;;4.10;;
16075;SDS011;8142;48.242;11.644;2023-06-24T03:26:57;4.77;;;4.23;;
16075;SDS011;8142;48.242;11.644;2023-06-24T03:29:23;4.83;;;4.10;;
16075;SDS011;8142;48.242;11.644;2023-06-24T03:31:49;7.20;;;4.03;;
16075;SDS011;8142;48.242;11.644;2023-06-24T03:34:15;4.13;;;3.73;;
16075;SDS011;8142;48.242;11.644;2023-06-24T03:36:42;4.00;;;3.70;;
16075;SDS011;8142;48.242;11.644;2023-06-24T03:39:08;4.50;;;4.10;;
16075;SDS011;8142;48.242;11.644;2023-06-24T03:41:34;4.57;;;3.83;;
16075;SDS011;8142;48.242;11.644;2023-06-24T03:44:00;4.37;;;3.80;;
16075;SDS011;8142;48.242;11.644;2023-06-24T03:46:26;4.63;;;3.73;;
16075;SDS011;8142;48.242;11.644;2023-06-24T03:48:57;4.00;;;3.57;;
16075;SDS011;8142;48.242;11.644;2023-06-24T03:51:25;4.63;;;3.77;;
16075;SDS011;8142;48.242;11.644;2023-06-24T03:53:51;4.53;;;3.77;;
16075;SDS011;8142;48.242;11.644;2023-06-24T03:56:17;4.10;;;3.70;;
16075;SDS011;8142;48.242;11.644;2023-06-24T03:58:43;5.30;;;4.07;;
16075;SDS011;8142;48.242;11.644;2023-06-24T04:01:09;5.03;;;3.63;;
16075;SDS011;8142;48.242;11.644;2023-06-24T04:03:35;3.70;;;3.30;;
16075;SDS011;8142;48.242;11.644;2023-06-24T04:06:01;3.73;;;3.33;;
16075;SDS011;8142;48.242;11.644;2023-06-24T04:08:27;4.37;;;3.17;;
16075;SDS011;8142;48.242;11.644;2023-06-24T04:10:56;3.50;;;3.20;;
16075;SDS011;8142;48.242;11.644;2023-06-24T04:13:24;3.97;;;3.57;;
16075;SDS011;8142;48.242;11.644;2023-06-24T04:15:50;4.10;;;3.33;;
16075;SDS011;8142;48.242;11.644;2023-06-24T04:18:16;4.13;;;3.33;;
16075;SDS011;8142;48.242;11.644;2023-06-24T04:20:42;4.23;;;3.50;;
16075;SDS011;8142;48.242;11.644;2023-06-24T04:23:09;3.73;;;3.33;;
16075;SDS011;8142;48.242;11.644;2023-06-24T04:25:36;4.07;;;3.63;;
16075;SDS011;8142;48.242;11.644;2023-06-24T04:28:02;3.77;;;3.27;;
16075;SDS011;8142;48.242;11.644;2023-06-24T04:30:30;4.73;;;3.90;;
16075;SDS011;8142;48.242;11.644;2023-06-24T04:32:56;4.73;;;3.40;;
16075;SDS011;8142;48.242;11.644;2023-06-24T04:35:22;3.97;;;3.57;;
16075;SDS011;8142;48.242;11.644;2023-06-24T04:37:49;4.33;;;3.50;;
16075;SDS011;8142;48.242;11.644;2023-06-24T04:40:18;3.80;;;3.30;;
16075;SDS011;8142;48.242;11.644;2023-06-24T04:42:45;4.50;;;3.57;;
16075;SDS011;8142;48.242;11.644;2023-06-24T04:45:11;4.13;;;3.60;;
16075;SDS011;8142;48.242;11.644;2023-06-24T04:47:37;4.40;;;3.37;;
16075;SDS011;8142;48.242;11.644;2023-06-24T04:50:03;3.87;;;3.40;;
16075;SDS011;8142;48.242;11.644;2023-06-24T04:52:30;4.00;;;3.60;;
16075;SDS011;8142;48.242;11.644;2023-06-24T04:54:56;5.80;;;3.80;;
16075;SDS011;8142;48.242;11.644;2023-06-24T04:57:30;4.20;;;3.80;;
16075;SDS011;8142;48.242;11.644;2023-06-24T04:59:57;4.93;;;3.60;;
16075;SDS011;8142;48.242;11.644;2023-06-24T05:02:24;4.60;;;3.70;;
16075;SDS011;8142;48.242;11.644;2023-06-24T05:04:51;3.87;;;3.50;;
16075;SDS011;8142;48.242;11.644;2023-06-24T05:07:17;4.83;;;3.63;;
16075;SDS011;8142;48.242;11.644;2023-06-24T05:09:45;4.03;;;3.00;;
16075;SDS011;8142;48.242;11.644;2023-06-24T05:12:12;4.63;;;3.40;;
16075;SDS011;8142;48.242;11.644;2023-06-24T05:14:38;4.50;;;3.80;;
16075;SDS011;8142;48.242;11.644;2023-06-24T05:17:04;3.87;;;3.30;;
16075;SDS011;8142;48.242;11.644;2023-06-24T05:19:31;4.73;;;3.40;;
16075;SDS011;8142;48.242;11.644;2023-06-24T05:21:57;4.90;;;3.40;;
16075;SDS011;8142;48.242;11.644;2023-06-24T05:24:23;4.47;;;3.30;;
16075;SDS011;8142;48.242;11.644;2023-06-24T05:26:49;4.27;;;3.30;;
16075;SDS011;8142;48.242;11.644;2023-06-24T05:29:16;4.10;;;3.57;;
16075;SDS011;8142;48.242;11.644;2023-06-24T05:31:43;3.93;;;3.57;;
16075;SDS011;8142;48.242;11.644;2023-06-24T05:34:09;3.73;;;3.23;;
16075;SDS011;8142;48.242;11.644;2023-06-24T05:36:35;3.67;;;3.30;;
16075;SDS011;8142;48.242;11.644;2023-06-24T05:39:01;3.70;;;3.40;;
16075;SDS011;8142;48.242;11.644;2023-06-24T05:41:27;4.30;;;3.63;;
16075;SDS011;8142;48.242;11.644;2023-06-24T05:44:08;5.37;;;3.40;;
16075;SDS011;8142;48.242;11.644;2023-06-24T05:46:35;3.90;;;3.50;;
16075;SDS011;8142;48.242;11.644;2023-06-24T05:49:01;4.20;;;3.70;;
16075;SDS011;8142;48.242;11.644;2023-06-24T05:51:28;3.77;;;3.20;;
16075;SDS011;8142;48.242;11.644;2023-06-24T05:53:54;3.80;;;3.40;;
16075;SDS011;8142;48.242;11.644;2023-06-24T05:56:20;4.20;;;3.50;;
16075;SDS011;8142;48.242;11.644;2023-06-24T05:58:47;3.87;;;3.40;;
16075;SDS011;8142;48.242;11.644;2023-06-24T06:01:14;4.87;;;3.30;;
16075;SDS011;8142;48.242;11.644;2023-06-24T06:03:40;4.13;;;3.40;;
16075;SDS011;8142;48.242;11.644;2023-06-24T06:06:08;4.07;;;3.17;;
16075;SDS011;8142;48.242;11.644;2023-06-24T06:08:35;4.03;;;3.40;;
16075;SDS011;8142;48.242;11.644;2023-06-24T06:11:01;3.73;;;3.10;;
16075;SDS011;8142;48.242;11.644;2023-06-24T06:13:30;3.97;;;3.43;;
16075;SDS011;8142;48.242;11.644;2023-06-24T06:15:56;3.43;;;3.13;;
16075;SDS011;8142;48.242;11.644;2023-06-24T06:18:23;4.47;;;3.53;;
16075;SDS011;8142;48.242;11.644;2023-06-24T06:20:49;3.60;;;3.20;;
16075;SDS011;8142;48.242;11.644;2023-06-24T06:23:15;4.73;;;3.60;;
16075;SDS011;8142;48.242;11.644;2023-06-24T06:25:41;15.87;;;4.70;;
16075;SDS011;8142;48.242;11.644;2023-06-24T06:28:07;7.70;;;3.73;;
16075;SDS011;8142;48.242;11.644;2023-06-24T06:30:34;7.70;;;4.00;;
16075;SDS011;8142;48.242;11.644;2023-06-24T06:33:00;6.47;;;3.53;;
16075;SDS011;8142;48.242;11.644;2023-06-24T06:35:26;4.17;;;3.43;;
16075;SDS011;8142;48.242;11.644;2023-06-24T06:37:52;5.93;;;3.30;;
16075;SDS011;8142;48.242;11.644;2023-06-24T06:40:19;4.13;;;2.80;;
16075;SDS011;8142;48.242;11.644;2023-06-24T06:42:46;3.03;;;2.73;;
16075;SDS011;8142;48.242;11.644;2023-06-24T06:45:12;3.00;;;2.70;;
16075;SDS011;8142;48.242;11.644;2023-06-24T06:47:38;2.80;;;2.60;;
16075;SDS011;8142;48.242;11.644;2023-06-24T06:50:05;2.73;;;2.40;;
16075;SDS011;8142;48.242;11.644;2023-06-24T06:52:31;3.37;;;2.70;;
16075;SDS011;8142;48.242;11.644;2023-06-24T06:54:57;3.67;;;2.83;;
16075;SDS011;8142;48.242;11.644;2023-06-24T06:57:23;3.00;;;2.60;;
16075;SDS011;8142;48.242;11.644;2023-06-24T06:59:50;3.23;;;2.40;;
16075;SDS011;8142;48.242;11.644;2023-06-24T07:02:17;2.73;;;2.40;;
16075;SDS011;8142;48.242;11.644;2023-06-24T07:04:43;2.57;;;2.33;;
16075;SDS011;8142;48.242;11.644;2023-06-24T07:07:10;3.20;;;2.70;;
16075;SDS011;8142;48.242;11.644;2023-06-24T07:09:37;2.80;;;2.60;;
16075;SDS011;8142;48.242;11.644;2023-06-24T07:12:03;2.33;;;2.13;;
16075;SDS011;8142;48.242;11.644;2023-06-24T07:14:29;3.43;;;2.90;;
16075;SDS011;8142;48.242;11.644;2023-06-24T07:16:55;2.93;;;2.43;;
16075;SDS011;8142;48.242;11.644;2023-06-24T07:19:21;3.30;;;2.30;;
16075;SDS011;8142;48.242;11.644;2023-06-24T07:21:47;3.40;;;2.57;;
16075;SDS011;8142;48.242;11.644;2023-06-24T07:24:13;2.57;;;2.37;;
16075;SDS011;8142;48.242;11.644;2023-06-24T07:26:39;2.57;;;2.37;;
16075;SDS011;8142;48.242;11.644;2023-06-24T07:29:06;2.57;;;2.37;;
16075;SDS011;8142;48.242;11.644;2023-06-24T07:31:32;2.97;;;2.40;;
16075;SDS011;8142;48.242;11.644;2023-06-24T07:34:02;2.50;;;2.30;;
16075;SDS011;8142;48.242;11.644;2023-06-24T07:36:28;3.73;;;3.10;;
16075;SDS011;8142;48.242;11.644;2023-06-24T07:38:54;3.17;;;2.87;;
16075;SDS011;8142;48.242;11.644;2023-06-24T07:41:20;4.30;;;2.87;;
16075;SDS011;8142;48.242;11.644;2023-06-24T07:43:46;3.87;;;2.97;;
16075;SDS011;8142;48.242;11.644;2023-06-24T07:46:12;3.93;;;2.90;;
16075;SDS011;8142;48.242;11.644;2023-06-24T07:48:40;3.43;;;3.13;;
16075;SDS011;8142;48.242;11.644;2023-06-24T07:51:06;3.20;;;2.90;;
16075;SDS011;8142;48.242;11.644;2023-06-24T07:53:32;3.67;;;3.23;;
16075;SDS011;8142;48.242;11.644;2023-06-24T07:55:59;3.27;;;2.90;;
16075;SDS011;8142;48.242;11.644;2023-06-24T07:58:25;3.47;;;3.10;;
16075;SDS011;8142;48.242;11.644;2023-06-24T08:00:51;3.40;;;3.10;;
16075;SDS011;8142;48.242;11.644;2023-06-24T08:03:17;3.30;;;3.00;;
16075;SDS011;8142;48.242;11.644;2023-06-24T08:05:43;3.30;;;3.00;;
16075;SDS011;8142;48.242;11.644;2023-06-24T08:08:09;3.33;;;2.77;;
16075;SDS011;8142;48.242;11.644;2023-06-24T08:10:35;3.03;;;2.57;;
16075;SDS011;8142;48.242;11.644;2023-06-24T08:13:01;4.37;;;3.00;;
16075;SDS011;8142;48.242;11.644;2023-06-24T08:15:27;3.30;;;3.00;;
16075;SDS011;8142;48.242;11.644;2023-06-24T08:17:53;3.90;;;2.93;;
16075;SDS011;8142;48.242;11.644;2023-06-24T08:20:23;3.77;;;3.13;;
16075;SDS011;8142;48.242;11.644;2023-06-24T08:22:49;3.37;;;2.83;;
16075;SDS011;8142;48.242;11.644;2023-06-24T08:25:15;4.10;;;3.00;;
16075;SDS011;8142;48.242;11.644;2023-06-24T08:27:41;3.33;;;2.80;;
16075;SDS011;8142;48.242;11.644;2023-06-24T08:30:12;3.47;;;2.90;;
16075;SDS011;8142;48.242;11.644;2023-06-24T08:32:39;3.47;;;3.13;;
16075;SDS011;8142;48.242;11.644;2023-06-24T08:35:06;3.77;;;3.00;;
16075;SDS011;8142;48.242;11.644;2023-06-24T08:37:33;3.87;;;3.30;;
16075;SDS011;8142;48.242;11.644;2023-06-24T08:39:59;3.53;;;3.03;;
16075;SDS011;8142;48.242;11.644;2023-06-24T08:42:25;3.97;;;3.40;;
16075;SDS011;8142;48.242;11.644;2023-06-24T08:44:51;3.93;;;3.50;;
16075;SDS011;8142;48.242;11.644;2023-06-24T08:47:17;3.67;;;3.10;;
16075;SDS011;8142;48.242;11.644;2023-06-24T08:49:46;3.90;;;3.20;;
16075;SDS011;8142;48.242;11.644;2023-06-24T08:52:16;5.20;;;3.47;;
16075;SDS011;8142;48.242;11.644;2023-06-24T08:54:45;6.37;;;4.30;;
16075;SDS011;8142;48.242;11.644;2023-06-24T08:57:17;3.23;;;2.93;;
16075;SDS011;8142;48.242;11.644;2023-06-24T08:59:44;4.00;;;3.60;;
16075;SDS011;8142;48.242;11.644;2023-06-24T09:02:09;6.17;;;3.87;;
16075;SDS011;8142;48.242;11.644;2023-06-24T09:04:36;4.03;;;3.63;;
16075;SDS011;8142;48.242;11.644;2023-06-24T09:07:02;4.20;;;3.80;;
16075;SDS011;8142;48.242;11.644;2023-06-24T09:09:29;4.67;;;3.83;;
16075;SDS011;8142;48.242;11.644;2023-06-24T09:11:59;4.13;;;3.60;;
16075;SDS011;8142;48.242;11.644;2023-06-24T09:14:26;4.30;;;3.90;;
16075;SDS011;8142;48.242;11.644;2023-06-24T09:16:58;4.00;;;3.60;;
16075;SDS011;8142;48.242;11.644;2023-06-24T09:19:28;4.63;;;3.30;;
16075;SDS011;8142;48.242;11.644;2023-06-24T09:22:16;4.60;;;3.83;;
16075;SDS011;8142;48.242;11.644;2023-06-24T09:24:43;4.97;;;4.07;;
16075;SDS011;8142;48.242;11.644;2023-06-24T09:27:15;6.23;;;4.40;;
16075;SDS011;8142;48.242;11.644;2023-06-24T09:29:45;4.40;;;4.00;;
16075;SDS011;8142;48.242;11.644;2023-06-24T09:32:12;4.43;;;3.80;;
16075;SDS011;8142;48.242;11.644;2023-06-24T09:34:38;4.17;;;3.77;;
16075;SDS011;8142;48.242;11.644;2023-06-24T09:37:05;4.93;;;3.67;;
16075;SDS011;8142;48.242;11.644;2023-06-24T09:39:36;4.47;;;3.67;;
16075;SDS011;8142;48.242;11.644;2023-06-24T09:42:04;4.07;;;3.67;;
16075;SDS011;8142;48.242;11.644;2023-06-24T09:44:33;4.17;;;3.77;;
16075;SDS011;8142;48.242;11.644;2023-06-24T09:46:59;4.70;;;4.13;;
16075;SDS011;8142;48.242;11.644;2023-06-24T09:49:25;3.30;;;3.00;;
16075;SDS011;8142;48.242;11.644;2023-06-24T09:51:55;3.53;;;3.23;;
16075;SDS011;8142;48.242;11.644;2023-06-24T09:54:26;4.30;;;3.70;;
16075;SDS011;8142;48.242;11.644;2023-06-24T09:56:53;11.03;;;3.90;;
16075;SDS011;8142;48.242;11.644;2023-06-24T09:59:23;6.93;;;3.73;;
16075;SDS011;8142;48.242;11.644;2023-06-24T10:01:52;5.30;;;3.70;;
16075;SDS011;8142;48.242;11.644;2023-06-24T10:04:19;4.83;;;3.43;;
16075;SDS011;8142;48.242;11.644;2023-06-24T10:06:47;7.00;;;3.97;;
16075;SDS011;8142;48.242;11.644;2023-06-24T10:09:13;5.10;;;3.50;;
16075;SDS011;8142;48.242;11.644;2023-06-24T10:11:42;5.73;;;3.33;;
16075;SDS011;8142;48.242;11.644;2023-06-24T10:14:13;4.07;;;3.47;;
16075;SDS011;8142;48.242;11.644;2023-06-24T10:16:40;6.67;;;3.50;;
16075;SDS011;8142;48.242;11.644;2023-06-24T10:19:07;4.13;;;3.60;;
16075;SDS011;8142;48.242;11.644;2023-06-24T10:21:47;8.93;;;3.90;;
16075;SDS011;8142;48.242;11.644;2023-06-24T10:24:35;3.97;;;3.57;;
16075;SDS011;8142;48.242;11.644;2023-06-24T10:27:17;5.43;;;3.87;;
16075;SDS011;8142;48.242;11.644;2023-06-24T10:29:50;3.40;;;3.10;;
16075;SDS011;8142;48.242;11.644;2023-06-24T10:32:18;3.50;;;3.20;;
16075;SDS011;8142;48.242;11.644;2023-06-24T10:34:46;3.80;;;3.40;;
16075;SDS011;8142;48.242;11.644;2023-06-24T10:47:36;3.70;;;3.40;;
16075;SDS011;8142;48.242;11.644;2023-06-24T10:50:04;4.23;;;3.40;;
16075;SDS011;8142;48.242;11.644;2023-06-24T10:52:31;3.60;;;2.97;;
16075;SDS011;8142;48.242;11.644;2023-06-24T10:54:57;4.60;;;3.13;;
16075;SDS011;8142;48.242;11.644;2023-06-24T10:57:25;3.73;;;3.33;;
16075;SDS011;8142;48.242;11.644;2023-06-24T10:59:52;6.00;;;3.00;;
16075;SDS011;8142;48.242;11.644;2023-06-24T11:02:24;3.43;;;3.13;;
16075;SDS011;8142;48.242;11.644;2023-06-24T11:04:55;4.77;;;3.87;;
16075;SDS011;8142;48.242;11.644;2023-06-24T11:07:26;3.90;;;3.50;;
16075;SDS011;8142;48.242;11.644;2023-06-24T11:09:56;4.47;;;3.43;;
16075;SDS011;8142;48.242;11.644;2023-06-24T11:12:25;4.20;;;3.17;;
16075;SDS011;8142;48.242;11.644;2023-06-24T11:15:00;3.83;;;3.00;;
16075;SDS011;8142;48.242;11.644;2023-06-24T11:17:30;3.37;;;2.70;;
16075;SDS011;8142;48.242;11.644;2023-06-24T11:19:57;3.13;;;2.70;;
16075;SDS011;8142;48.242;11.644;2023-06-24T11:22:24;3.80;;;3.30;;
16075;SDS011;8142;48.242;11.644;2023-06-24T11:24:51;4.60;;;3.20;;
16075;SDS011;8142;48.242;11.644;2023-06-24T11:27:23;4.93;;;3.90;;
16075;SDS011;8142;48.242;11.644;2023-06-24T11:29:53;3.97;;;3.57;;
16075;SDS011;8142;48.242;11.644;2023-06-24T11:32:23;3.73;;;3.40;;
16075;SDS011;8142;48.242;11.644;2023-06-24T11:34:49;4.17;;;3.30;;
16075;SDS011;8142;48.242;11.644;2023-06-24T11:37:19;4.50;;;3.50;;
16075;SDS011;8142;48.242;11.644;2023-06-24T11:39:45;3.43;;;3.03;;
16075;SDS011;8142;48.242;11.644;2023-06-24T11:42:27;4.90;;;3.40;;
16075;SDS011;8142;48.242;11.644;2023-06-24T11:44:58;3.53;;;3.00;;
16075;SDS011;8142;48.242;11.644;2023-06-24T11:47:25;3.53;;;3.23;;
16075;SDS011;8142;48.242;11.644;2023-06-24T11:49:51;4.87;;;3.50;;
16075;SDS011;8142;48.242;11.644;2023-06-24T11:52:27;5.10;;;3.20;;
16075;SDS011;8142;48.242;11.644;2023-06-24T11:55:18;4.07;;;3.20;;
16075;SDS011;8142;48.242;11.644;2023-06-24T11:57:46;3.30;;;3.00;;
16075;SDS011;8142;48.242;11.644;2023-06-24T12:00:40;5.30;;;3.40;;
16075;SDS011;8142;48.242;11.644;2023-06-24T12:03:09;3.80;;;3.40;;
16075;SDS011;8142;48.242;11.644;2023-06-24T12:05:36;3.27;;;2.97;;
16075;SDS011;8142;48.242;11.644;2023-06-24T12:08:04;3.53;;;3.20;;
16075;SDS011;8142;48.242;11.644;2023-06-24T12:10:31;3.30;;;3.00;;
16075;SDS011;8142;48.242;11.644;2023-06-24T12:12:59;4.10;;;3.10;;
16075;SDS011;8142;48.242;11.644;2023-06-24T12:15:26;3.43;;;3.13;;
16075;SDS011;8142;48.242;11.644;2023-06-24T12:17:53;3.10;;;2.80;;
16075;SDS011;8142;48.242;11.644;2023-06-24T12:20:19;5.13;;;3.30;;
16075;SDS011;8142;48.242;11.644;2023-06-24T12:22:46;3.80;;;3.27;;
16075;SDS011;8142;48.242;11.644;2023-06-24T12:25:13;5.27;;;4.57;;
16075;SDS011;8142;48.242;11.644;2023-06-24T12:27:41;4.17;;;3.30;;
16075;SDS011;8142;48.242;11.644;2023-06-24T12:30:07;4.60;;;3.23;;
16075;SDS011;8142;48.242;11.644;2023-06-24T12:32:34;3.37;;;3.00;;
16075;SDS011;8142;48.242;11.644;2023-06-24T12:35:00;3.30;;;3.00;;
16075;SDS011;8142;48.242;11.644;2023-06-24T12:37:31;3.17;;;2.87;;
16075;SDS011;8142;48.242;11.644;2023-06-24T12:39:58;2.93;;;2.60;;
16075;SDS011;8142;48.242;11.644;2023-06-24T12:42:25;3.30;;;3.00;;
16075;SDS011;8142;48.242;11.644;2023-06-24T12:44:51;4.27;;;3.10;;
16075;SDS011;8142;48.242;11.644;2023-06-24T12:47:18;4.87;;;3.40;;
16075;SDS011;8142;48.242;11.644;2023-06-24T12:49:44;4.27;;;3.23;;
16075;SDS011;8142;48.242;11.644;2023-06-24T12:52:11;4.13;;;3.30;;
16075;SDS011;8142;48.242;11.644;2023-06-24T12:54:40;3.27;;;2.97;;
16075;SDS011;8142;48.242;11.644;2023-06-24T12:57:06;3.20;;;2.90;;
16075;SDS011;8142;48.242;11.644;2023-06-24T12:59:33;4.30;;;3.10;;
16075;SDS011;8142;48.242;11.644;2023-06-24T13:01:58;3.10;;;2.90;;
16075;SDS011;8142;48.242;11.644;2023-06-24T13:04:25;3.57;;;3.03;;
16075;SDS011;8142;48.242;11.644;2023-06-24T13:06:52;3.40;;;3.07;;
16075;SDS011;8142;48.242;11.644;2023-06-24T13:09:18;3.50;;;2.93;;
16075;SDS011;8142;48.242;11.644;2023-06-24T13:11:44;3.77;;;3.33;;
16075;SDS011;8142;48.242;11.644;2023-06-24T13:14:10;3.30;;;3.00;;
16075;SDS011;8142;48.242;11.644;2023-06-24T13:16:36;3.67;;;3.30;;
16075;SDS011;8142;48.242;11.644;2023-06-24T13:19:02;4.57;;;3.57;;
16075;SDS011;8142;48.242;11.644;2023-06-24T13:21:28;3.80;;;3.40;;
16075;SDS011;8142;48.242;11.644;2023-06-24T13:23:54;3.33;;;3.03;;
16075;SDS011;8142;48.242;11.644;2023-06-24T13:26:20;3.77;;;3.33;;
16075;SDS011;8142;48.242;11.644;2023-06-24T13:28:46;3.87;;;3.23;;
16075;SDS011;8142;48.242;11.644;2023-06-24T13:31:14;3.77;;;3.30;;
16075;SDS011;8142;48.242;11.644;2023-06-24T13:33:40;3.50;;;3.10;;
16075;SDS011;8142;48.242;11.644;2023-06-24T13:36:06;3.43;;;3.13;;
16075;SDS011;8142;48.242;11.644;2023-06-24T13:38:36;3.87;;;3.00;;
16075;SDS011;8142;48.242;11.644;2023-06-24T13:41:02;3.40;;;3.10;;
16075;SDS011;8142;48.242;11.644;2023-06-24T13:43:28;3.67;;;3.10;;
16075;SDS011;8142;48.242;11.644;2023-06-24T13:45:54;3.23;;;2.93;;
16075;SDS011;8142;48.242;11.644;2023-06-24T13:48:20;3.27;;;2.97;;
16075;SDS011;8142;48.242;11.644;2023-06-24T13:50:46;3.47;;;3.13;;
16075;SDS011;8142;48.242;11.644;2023-06-24T13:53:12;4.77;;;3.13;;
16075;SDS011;8142;48.242;11.644;2023-06-24T13:55:38;4.40;;;3.17;;
16075;SDS011;8142;48.242;11.644;2023-06-24T13:58:03;3.33;;;3.03;;
16075;SDS011;8142;48.242;11.644;2023-06-24T14:00:29;4.27;;;3.30;;
16075;SDS011;8142;48.242;11.644;2023-06-24T14:02:55;3.40;;;3.10;;
16075;SDS011;8142;48.242;11.644;2023-06-24T14:05:21;4.43;;;3.27;;
16075;SDS011;8142;48.242;11.644;2023-06-24T14:07:47;4.77;;;3.60;;
16075;SDS011;8142;48.242;11.644;2023-06-24T14:10:13;3.63;;;3.17;;
16075;SDS011;8142;48.242;11.644;2023-06-24T14:12:40;3.27;;;2.97;;
16075;SDS011;8142;48.242;11.644;2023-06-24T14:15:08;4.03;;;3.30;;
16075;SDS011;8142;48.242;11.644;2023-06-24T14:17:34;3.10;;;2.80;;
16075;SDS011;8142;48.242;11.644;2023-06-24T14:20:00;3.47;;;3.17;;
16075;SDS011;8142;48.242;11.644;2023-06-24T14:22:27;3.33;;;3.00;;
16075;SDS011;8142;48.242;11.644;2023-06-24T14:24:52;3.90;;;3.50;;
16075;SDS011;8142;48.242;11.644;2023-06-24T14:27:18;3.70;;;3.33;;
16075;SDS011;8142;48.242;11.644;2023-06-24T14:29:44;4.23;;;3.60;;
16075;SDS011;8142;48.242;11.644;2023-06-24T14:32:10;4.20;;;3.60;;
16075;SDS011;8142;48.242;11.644;2023-06-24T14:34:36;3.60;;;3.00;;
16075;SDS011;8142;48.242;11.644;2023-06-24T14:37:02;3.87;;;3.40;;
16075;SDS011;8142;48.242;11.644;2023-06-24T14:39:27;4.00;;;3.37;;
16075;SDS011;8142;48.242;11.644;2023-06-24T14:41:53;3.33;;;3.03;;
16075;SDS011;8142;48.242;11.644;2023-06-24T14:44:19;3.80;;;3.00;;
16075;SDS011;8142;48.242;11.644;2023-06-24T14:46:45;3.70;;;3.30;;
16075;SDS011;8142;48.242;11.644;2023-06-24T14:49:11;2.93;;;2.63;;
16075;SDS011;8142;48.242;11.644;2023-06-24T14:51:37;3.30;;;3.00;;
16075;SDS011;8142;48.242;11.644;2023-06-24T14:54:02;4.10;;;3.20;;
16075;SDS011;8142;48.242;11.644;2023-06-24T14:56:28;5.27;;;3.20;;
16075;SDS011;8142;48.242;11.644;2023-06-24T14:58:54;3.87;;;3.40;;
16075;SDS011;8142;48.242;11.644;2023-06-24T15:01:20;4.30;;;3.23;;
16075;SDS011;8142;48.242;11.644;2023-06-24T15:03:46;3.40;;;3.03;;
16075;SDS011;8142;48.242;11.644;2023-06-24T15:06:12;4.30;;;3.07;;
16075;SDS011;8142;48.242;11.644;2023-06-24T15:08:37;3.90;;;3.40;;
16075;SDS011;8142;48.242;11.644;2023-06-24T15:11:03;4.33;;;3.33;;
16075;SDS011;8142;48.242;11.644;2023-06-24T15:13:29;3.30;;;3.00;;